Holmes, Pennsylvania
Current Conditions -  °F | °C
As of 4:54 PM on Friday 24 Oct 2014 (Local Time) from KPHL Reporting Station
Broken Clouds Broken Clouds  
Wind Chill: 68°   Ceiling: 25000
Heat Index: 68°   Visibility: 10mi
Dew Point: 44°   Wind: 14mph
Humidity: 42%   Direction: 300°WNW
Pressure: 29.81"   Gusts: NA
Location:  39.9°N, 75.31°W
Report Text: KPHL 242054Z 30012KT 10SM BKN250 20/07 A2981 RMK AO2 SLP094 T02000067 55004
Loading
Personal Weather Stations






























Interactive Weather Map
Tropical Storm Tracking
New forecast layout! Learn more

10-Day Weather Forecast

Advertisements
Track Severe Weather on mobile